KGLE/GLE METAR and TAF weather

Enter ICAO airport designator
Station Type Date Time Source
KGLE METAR 2019/04/18 14:35 UTC NOAA

KGLE 181435Z AUTO 36012G20KT 10SM SCT014 BKN023 OVC034 15/12 A2982 RMK AO2 T01510120


Station Type Date Time Source
KGLE Decoded METAR 2019/04/18 14:35 UTC NOAA

Gainesville, Gainesville Municipal Airport, TX, United States (KGLE) 33-39-05N 097-11-49W
Apr 18, 2019 - 10:35 AM EDT / 2019.04.18 1435 UTC
Wind: from the N (360 degrees) at 14 MPH (12 KT) gusting to 23 MPH (20 KT):0
Visibility: 10 mile(s):0
Sky conditions: overcast
Temperature: 59.2 F (15.1 C)
Dew Point: 53.6 F (12.0 C)
Relative Humidity: 81%
Pressure (altimeter): 29.82 in. Hg (1009 hPa)
ob: KGLE 181435Z AUTO 36012G20KT 10SM SCT014 BKN023 OVC034 15/12 A2982 RMK AO2 T01510120
cycle: 14

Station Type Date Time Source
KGLE TAF UTC NOAA

Error!

Example: see airport list